CheckWX is a tool to help pilots better visualize weather data.  It is not intended as a substitute for an official pre-flight weather briefing.

07:40:48 UTC

KFWN METAR
Sussex Airport
Sussex, New Jersey, USA
Current

48 mins ago

KFWN 060653Z AUTO 27005KT 10SM OVC040 01/M07 A3011 RMK AO2 SLP198 T00061072
Observed
Dec-6 @ 06:53 UTC
Wind
  • 270° at 5 KTS
Visibility
10 SM
Flight Rules
VFR
Cloud Levels
  • Overcast at 4,000' AGL
Temperature
C / 34°F
Dewpoint
-7°C / 19°F
Humidity
56%
Altimeter
30.11" Hg
Pressure
1019.62 hPa
Previous

2 hours ago

KFWN 060553Z AUTO 00000KT 10SM OVC040 01/M07 A3009 RMK AO2 SLP193 60000 T00111072 10017 20006 52013
Observed
Dec-6 @ 05:53 UTC
Visibility
10 SM
Flight Rules
VFR
Cloud Levels
  • Overcast at 4,000' AGL
Temperature
C / 34°F
Dewpoint
-7°C / 19°F
Humidity
56%
Altimeter
30.09" Hg
Pressure
1018.92 hPa
Previous

3 hours ago

KFWN 060453Z AUTO 23004KT 10SM OVC040 01/M06 A3008 RMK AO2 SLP188 T00111061 400391006
Observed
Dec-6 @ 04:53 UTC
Wind
  • 230° at 4 KTS
Visibility
10 SM
Flight Rules
VFR
Cloud Levels
  • Overcast at 4,000' AGL
Temperature
C / 34°F
Dewpoint
-6°C / 21°F
Humidity
60%
Altimeter
30.08" Hg
Pressure
1018.62 hPa